Time;durP1;ratioP1;P1;durP2;ratioP2;P2;SDS_P1;SDS_P2;PMS_P1;PMS_P2;Temp;Humidity;BMP_temperature;BMP_pressure;BME280_temperature;BME280_humidity;BME280_pressure;Samples;Min_cycle;Max_cycle;Signal;HPM_P1;HPM_P2
2022/02/27 00:02:04;;;;;;;23.83;13.23;;;;;;;-0.14;100.00;99810.45;1604160;89;21151;-69
2022/02/27 00:04:32;;;;;;;22.77;13.17;;;;;;;-0.14;100.00;99808.66;1602994;87;21546;-70
2022/02/27 00:07:01;;;;;;;23.53;12.40;;;;;;;-0.13;100.00;99810.83;1631982;88;21101;-71
2022/02/27 00:09:29;;;;;;;22.73;12.23;;;;;;;-0.13;100.00;99820.97;1638246;87;21120;-69
2022/02/27 00:11:57;;;;;;;23.33;11.80;;;;;;;-0.11;100.00;99822.20;1640588;86;21056;-70
2022/02/27 00:14:24;;;;;;;22.37;12.00;;;;;;;-0.12;100.00;99827.16;1650338;86;21033;-70
2022/02/27 00:16:51;;;;;;;21.80;11.77;;;;;;;-0.13;100.00;99824.95;1650260;86;21156;-70
2022/02/27 00:19:20;;;;;;;21.57;11.70;;;;;;;-0.15;100.00;99832.20;1634071;86;21080;-70
2022/02/27 00:21:48;;;;;;;22.40;11.87;;;;;;;-0.16;100.00;99837.16;1659482;86;21093;-69
2022/02/27 00:24:15;;;;;;;19.90;10.93;;;;;;;-0.17;100.00;99844.74;1651140;85;21093;-70
2022/02/27 00:26:42;;;;;;;20.77;10.80;;;;;;;-0.17;100.00;99847.41;1656421;85;21106;-69
2022/02/27 00:29:09;;;;;;;19.67;10.93;;;;;;;-0.18;100.00;99845.69;1651788;86;21057;-70
2022/02/27 00:31:36;;;;;;;20.27;10.63;;;;;;;-0.23;100.00;99840.72;1621687;86;21034;-69
2022/02/27 00:34:03;;;;;;;21.37;11.00;;;;;;;-0.25;100.00;99841.30;1654632;86;21551;-70
2022/02/27 00:36:31;;;;;;;21.53;11.27;;;;;;;-0.27;100.00;99841.02;1654295;86;21530;-69
2022/02/27 00:38:58;;;;;;;19.07;9.87;;;;;;;-0.31;100.00;99839.55;1645440;87;21069;-69
2022/02/27 00:41:25;;;;;;;20.17;11.03;;;;;;;-0.36;100.00;99842.51;1656213;86;21113;-69
2022/02/27 00:43:52;;;;;;;21.03;11.23;;;;;;;-0.41;100.00;99847.28;1645169;86;21029;-70
2022/02/27 00:46:19;;;;;;;20.73;11.20;;;;;;;-0.46;100.00;99849.41;1648637;86;21076;-70
2022/02/27 00:48:47;;;;;;;18.27;10.00;;;;;;;-0.51;100.00;99853.72;1641586;86;21069;-70
2022/02/27 00:51:14;;;;;;;20.43;10.67;;;;;;;-0.54;100.00;99855.74;1648892;86;21069;-70
2022/02/27 00:53:41;;;;;;;20.40;11.17;;;;;;;-0.60;100.00;99855.69;1636047;86;21029;-71
2022/02/27 00:56:09;;;;;;;18.00;9.93;;;;;;;-0.63;100.00;99862.04;1639528;86;21167;-70
2022/02/27 00:58:36;;;;;;;21.53;10.60;;;;;;;-0.66;100.00;99863.56;1649879;86;21084;-70
2022/02/27 01:01:03;;;;;;;21.70;11.00;;;;;;;-0.67;100.00;99867.68;1652529;86;21069;-70
2022/02/27 01:03:32;;;;;;;20.57;10.80;;;;;;;-0.68;100.00;99869.46;1643582;86;21534;-70
2022/02/27 01:05:59;;;;;;;22.17;11.07;;;;;;;-0.66;100.00;99872.86;1648814;86;21013;-69
2022/02/27 01:08:28;;;;;;;22.23;11.00;;;;;;;-0.66;100.00;99878.17;1649545;85;21057;-70
2022/02/27 01:10:55;;;;;;;25.67;12.40;;;;;;;-0.66;100.00;99868.88;1650313;86;21037;-69
2022/02/27 01:13:22;;;;;;;24.13;12.53;;;;;;;-0.65;100.00;99871.08;1649628;86;21033;-69
2022/02/27 01:15:49;;;;;;;24.43;12.97;;;;;;;-0.64;100.00;99867.45;1655954;86;21082;-70
2022/02/27 01:18:16;;;;;;;23.57;12.20;;;;;;;-0.64;100.00;99868.33;1650290;86;21114;-69
2022/02/27 01:20:43;;;;;;;26.27;14.10;;;;;;;-0.64;100.00;99872.77;1647208;86;21070;-69
2022/02/27 01:23:12;;;;;;;22.77;11.87;;;;;;;-0.68;100.00;99873.45;1649774;86;21524;-70
2022/02/27 01:25:40;;;;;;;22.77;11.30;;;;;;;-0.69;100.00;99876.20;1657357;86;21068;-69
2022/02/27 01:28:07;;;;;;;24.37;11.30;;;;;;;-0.69;100.00;99877.53;1653112;86;21101;-69
2022/02/27 01:30:36;;;;;;;20.00;10.63;;;;;;;-0.71;100.00;99877.63;1651729;86;21038;-70
2022/02/27 01:33:04;;;;;;;23.10;10.80;;;;;;;-0.73;100.00;99876.88;1643748;86;21109;-69
2022/02/27 01:35:31;;;;;;;22.53;10.93;;;;;;;-0.75;100.00;99873.48;1668385;86;21095;-69
2022/02/27 01:37:58;;;;;;;22.63;11.73;;;;;;;-0.77;100.00;99880.71;1652336;86;21069;-69
2022/02/27 01:40:25;;;;;;;21.23;10.27;;;;;;;-0.81;100.00;99885.86;1648805;86;21047;-69
2022/02/27 01:42:53;;;;;;;24.53;12.10;;;;;;;-0.83;100.00;99886.44;1649850;86;21041;-69
2022/02/27 01:45:21;;;;;;;23.63;11.90;;;;;;;-0.84;100.00;99888.22;1636284;86;21104;-70
2022/02/27 01:47:49;;;;;;;23.77;12.23;;;;;;;-0.88;100.00;99888.06;1659236;86;21066;-70
2022/02/27 01:50:16;;;;;;;22.57;11.40;;;;;;;-0.91;100.00;99894.05;1642288;87;21037;-70
2022/02/27 01:52:45;;;;;;;24.20;11.40;;;;;;;-0.94;100.00;99897.74;1642335;87;21612;-69
2022/02/27 01:55:12;;;;;;;24.90;12.00;;;;;;;-0.96;100.00;99898.33;1642280;87;21543;-70
2022/02/27 01:57:42;;;;;;;22.47;10.50;;;;;;;-0.98;100.00;99898.42;1646956;86;21562;-70
2022/02/27 02:00:10;;;;;;;24.80;12.33;;;;;;;-0.99;100.00;99898.55;1645059;86;21052;-70
2022/02/27 02:02:44;;;;;;;24.77;12.07;;;;;;;-1.01;100.00;99896.45;1650435;86;21531;-70
2022/02/27 02:05:12;;;;;;;26.80;11.90;;;;;;;-1.04;100.00;99909.94;1648436;86;21530;-70
2022/02/27 02:07:41;;;;;;;23.03;11.20;;;;;;;-1.07;100.00;99912.30;1646179;86;21098;-69
2022/02/27 02:10:09;;;;;;;25.23;11.80;;;;;;;-1.08;100.00;99911.95;1652795;86;21035;-70
2022/02/27 02:12:40;;;;;;;23.57;11.20;;;;;;;-1.09;100.00;99908.06;1653886;86;21049;-71
2022/02/27 02:15:09;;;;;;;23.87;11.33;;;;;;;-1.10;100.00;99912.50;1651503;86;21054;-71
2022/02/27 02:17:36;;;;;;;24.43;11.13;;;;;;;-1.12;100.00;99911.75;1644984;86;21062;-70
2022/02/27 02:20:06;;;;;;;22.70;11.17;;;;;;;-1.12;100.00;99908.25;1653123;86;21033;-70
2022/02/27 02:22:35;;;;;;;22.20;10.17;;;;;;;-1.13;100.00;99915.82;1655879;85;21054;-70
2022/02/27 02:25:03;;;;;;;19.83;8.93;;;;;;;-1.13;100.00;99914.05;1640726;86;21479;-70
2022/02/27 02:27:32;;;;;;;19.33;8.77;;;;;;;-1.15;100.00;99915.95;1649887;86;21085;-70
2022/02/27 02:29:59;;;;;;;19.50;9.03;;;;;;;-1.15;100.00;99922.09;1638463;86;21620;-70
2022/02/27 02:32:26;;;;;;;18.00;8.87;;;;;;;-1.16;100.00;99923.52;1651431;86;21047;-70
2022/02/27 02:34:53;;;;;;;18.47;8.27;;;;;;;-1.18;100.00;99924.10;1635973;86;21073;-70
2022/02/27 02:37:20;;;;;;;16.30;8.33;;;;;;;-1.20;100.00;99931.31;1636818;86;21005;-70
2022/02/27 02:39:48;;;;;;;16.33;8.17;;;;;;;-1.20;100.00;99928.66;1642465;86;21109;-70
2022/02/27 02:42:15;;;;;;;16.00;7.63;;;;;;;-1.21;100.00;99929.11;1646459;86;21120;-70
2022/02/27 02:44:43;;;;;;;15.00;7.40;;;;;;;-1.22;100.00;99928.75;1652417;86;21010;-70
2022/02/27 02:47:12;;;;;;;15.90;7.77;;;;;;;-1.23;100.00;99935.00;1651199;86;21086;-70
2022/02/27 02:49:39;;;;;;;14.77;7.73;;;;;;;-1.24;100.00;99934.64;1652729;86;21500;-70
2022/02/27 02:52:07;;;;;;;16.80;7.57;;;;;;;-1.25;100.00;99933.41;1643604;86;21034;-70
2022/02/27 02:54:34;;;;;;;16.40;7.67;;;;;;;-1.26;100.00;99943.14;1644246;86;21037;-70
2022/02/27 02:57:01;;;;;;;18.63;7.83;;;;;;;-1.26;100.00;99944.95;1648997;85;21094;-70
2022/02/27 02:59:28;;;;;;;14.70;7.70;;;;;;;-1.28;100.00;99939.74;1651759;86;21078;-70
2022/02/27 03:01:55;;;;;;;16.40;7.73;;;;;;;-1.28;100.00;99926.96;1654795;86;21061;-69
2022/02/27 03:04:22;;;;;;;16.37;7.30;;;;;;;-1.28;100.00;99935.77;1654935;86;21112;-69
2022/02/27 03:06:49;;;;;;;17.27;7.50;;;;;;;-1.28;100.00;99946.86;1641130;85;21038;-70
2022/02/27 03:09:17;;;;;;;15.87;7.37;;;;;;;-1.29;100.00;99942.04;1657162;86;21029;-69
2022/02/27 03:11:45;;;;;;;16.30;7.20;;;;;;;-1.29;100.00;99943.36;1666761;85;21069;-69
2022/02/27 03:14:11;;;;;;;13.63;6.83;;;;;;;-1.30;100.00;99948.28;1651699;86;21066;-70
2022/02/27 03:16:39;;;;;;;15.47;7.77;;;;;;;-1.30;100.00;99947.44;1659740;86;21036;-69
2022/02/27 03:19:06;;;;;;;16.37;7.37;;;;;;;-1.32;100.00;99939.57;1641669;86;21148;-70
2022/02/27 03:21:33;;;;;;;15.87;6.93;;;;;;;-1.31;100.00;99938.64;1641369;86;21062;-70
2022/02/27 03:24:00;;;;;;;15.10;7.13;;;;;;;-1.32;100.00;99944.88;1659118;86;21059;-70
2022/02/27 03:26:27;;;;;;;16.33;7.23;;;;;;;-1.34;100.00;99946.30;1654729;86;21033;-69
2022/02/27 03:28:53;;;;;;;14.70;6.90;;;;;;;-1.33;100.00;99949.79;1656491;86;21013;-68
2022/02/27 03:31:21;;;;;;;14.33;7.17;;;;;;;-1.34;100.00;99950.27;1644786;85;21534;-69
2022/02/27 03:33:48;;;;;;;15.33;7.30;;;;;;;-1.35;100.00;99946.39;1652421;86;21038;-70
2022/02/27 03:36:15;;;;;;;15.07;7.27;;;;;;;-1.37;100.00;99953.59;1650493;86;21077;-71
2022/02/27 03:38:43;;;;;;;15.63;7.40;;;;;;;-1.38;100.00;99957.19;1646837;86;21078;-70
2022/02/27 03:41:10;;;;;;;14.80;7.40;;;;;;;-1.37;100.00;99964.20;1645533;85;21070;-70
2022/02/27 03:43:37;;;;;;;13.87;7.27;;;;;;;-1.39;100.00;99966.95;1653532;86;21100;-70
2022/02/27 03:46:05;;;;;;;14.97;7.07;;;;;;;-1.41;100.00;99971.99;1658048;86;21105;-69
2022/02/27 03:48:32;;;;;;;15.03;7.30;;;;;;;-1.43;100.00;99968.59;1652611;86;21037;-70
2022/02/27 03:50:59;;;;;;;13.57;6.30;;;;;;;-1.45;100.00;99971.33;1656440;86;21558;-70
2022/02/27 03:53:25;;;;;;;16.83;7.33;;;;;;;-1.46;100.00;99972.27;1653755;86;21073;-70
2022/02/27 03:55:53;;;;;;;14.33;7.30;;;;;;;-1.46;100.00;99978.05;1648993;86;21033;-69
2022/02/27 03:58:20;;;;;;;14.77;7.30;;;;;;;-1.48;100.00;99981.28;1646146;86;21148;-69
2022/02/27 04:00:46;;;;;;;15.47;6.93;;;;;;;-1.50;100.00;99985.83;1653857;86;21108;-69
2022/02/27 04:03:13;;;;;;;17.33;7.43;;;;;;;-1.53;100.00;99983.72;1648931;86;21038;-69
2022/02/27 04:05:40;;;;;;;14.27;6.87;;;;;;;-1.54;100.00;99987.80;1640998;86;21080;-70
2022/02/27 04:08:08;;;;;;;14.90;6.70;;;;;;;-1.55;100.00;99997.55;1652830;86;21060;-69
2022/02/27 04:10:35;;;;;;;14.73;6.80;;;;;;;-1.57;100.00;99994.16;1642975;86;21067;-70
2022/02/27 04:13:02;;;;;;;12.70;6.30;;;;;;;-1.57;100.00;99994.64;1631187;86;21042;-70
2022/02/27 04:15:32;;;;;;;14.13;6.60;;;;;;;-1.59;100.00;99993.40;1649180;86;21550;-70
2022/02/27 04:17:59;;;;;;;13.10;6.30;;;;;;;-1.60;100.00;99996.98;1657580;86;21022;-70
2022/02/27 04:20:27;;;;;;;14.70;6.80;;;;;;;-1.62;100.00;99999.37;1657530;86;21065;-69
2022/02/27 04:22:54;;;;;;;15.93;7.03;;;;;;;-1.64;100.00;100002.11;1641817;86;21096;-70
2022/02/27 04:25:21;;;;;;;15.60;7.13;;;;;;;-1.65;100.00;100003.52;1653530;86;21047;-68
2022/02/27 04:27:48;;;;;;;18.63;7.80;;;;;;;-1.65;100.00;100005.69;1642060;86;21113;-69
2022/02/27 04:30:16;;;;;;;19.73;9.30;;;;;;;-1.67;100.00;100009.41;1641992;86;21525;-70
2022/02/27 04:32:43;;;;;;;23.83;10.70;;;;;;;-1.70;100.00;100013.08;1661767;85;21094;-70
2022/02/27 04:35:14;;;;;;;25.00;11.47;;;;;;;-1.72;100.00;100018.95;1648959;86;21034;-69
2022/02/27 04:37:41;;;;;;;29.30;12.77;;;;;;;-1.75;100.00;100016.02;1648783;86;21522;-70
2022/02/27 04:40:10;;;;;;;26.13;12.67;;;;;;;-1.77;100.00;100017.05;1654473;86;21546;-69
2022/02/27 04:42:37;;;;;;;26.57;12.80;;;;;;;-1.80;100.00;100014.60;1625203;86;21573;-70
2022/02/27 04:45:07;;;;;;;23.70;10.83;;;;;;;-1.81;100.00;100017.70;1656008;86;21061;-69
2022/02/27 04:47:34;;;;;;;27.03;11.40;;;;;;;-1.82;100.00;100013.37;1652358;86;21353;-70
2022/02/27 04:50:01;;;;;;;26.63;13.33;;;;;;;-1.82;100.00;100021.31;1640431;87;21084;-70
2022/02/27 04:52:28;;;;;;;23.70;11.10;;;;;;;-1.81;100.00;100016.86;1644277;86;21081;-70
2022/02/27 04:54:55;;;;;;;24.03;10.67;;;;;;;-1.81;100.00;100015.05;1642542;86;21026;-70
2022/02/27 04:57:22;;;;;;;27.57;11.47;;;;;;;-1.82;100.00;100016.02;1651312;86;21554;-70
2022/02/27 04:59:49;;;;;;;23.87;11.03;;;;;;;-1.80;100.00;100014.13;1644256;86;21101;-70
2022/02/27 05:02:16;;;;;;;22.07;9.70;;;;;;;-1.79;100.00;100017.16;1651096;86;21053;-69
2022/02/27 05:04:44;;;;;;;20.27;8.03;;;;;;;-1.77;100.00;100023.67;1653260;86;21069;-70
2022/02/27 05:07:11;;;;;;;18.73;7.93;;;;;;;-1.75;100.00;100025.30;1639590;86;21088;-68
2022/02/27 05:09:38;;;;;;;17.83;7.77;;;;;;;-1.74;100.00;100030.97;1651495;86;21019;-69
2022/02/27 05:12:06;;;;;;;17.47;8.20;;;;;;;-1.73;100.00;100022.56;1649093;86;21538;-71
2022/02/27 05:14:34;;;;;;;15.50;6.93;;;;;;;-1.69;100.00;100031.18;1639516;86;21541;-71
2022/02/27 05:17:03;;;;;;;15.10;7.43;;;;;;;-1.64;100.00;100022.48;1639866;86;21061;-70
2022/02/27 05:19:31;;;;;;;15.63;7.10;;;;;;;-1.59;100.00;100021.25;1631333;86;21566;-69
2022/02/27 05:21:58;;;;;;;17.83;7.50;;;;;;;-1.52;100.00;100016.42;1646967;86;21557;-69
2022/02/27 05:24:25;;;;;;;19.83;7.53;;;;;;;-1.48;100.00;100017.09;1647364;86;21127;-70
2022/02/27 05:26:51;;;;;;;14.00;7.13;;;;;;;-1.46;100.00;100020.01;1640406;86;21037;-70
2022/02/27 05:29:20;;;;;;;16.40;7.50;;;;;;;-1.47;100.00;100020.97;1644861;86;21054;-69
2022/02/27 05:31:47;;;;;;;18.50;7.33;;;;;;;-1.49;100.00;100017.53;1652378;86;21070;-70
2022/02/27 05:34:14;;;;;;;20.00;7.80;;;;;;;-1.51;100.00;100022.57;1641588;86;21604;-70
2022/02/27 05:36:41;;;;;;;17.27;8.37;;;;;;;-1.53;100.00;100018.20;1652400;82;21533;-69
2022/02/27 05:39:08;;;;;;;17.07;7.50;;;;;;;-1.54;100.00;100021.81;1638570;86;21053;-70
2022/02/27 05:41:36;;;;;;;18.53;6.97;;;;;;;-1.55;100.00;100020.58;1644477;86;21073;-69
2022/02/27 05:44:03;;;;;;;18.17;7.87;;;;;;;-1.54;100.00;100025.80;1654625;86;21689;-70
2022/02/27 05:46:30;;;;;;;15.80;7.70;;;;;;;-1.54;100.00;100011.66;1647629;86;21541;-71
2022/02/27 05:48:58;;;;;;;16.63;7.13;;;;;;;-1.53;100.00;100018.68;1658082;86;21603;-71
2022/02/27 05:51:25;;;;;;;16.07;7.30;;;;;;;-1.53;100.00;100031.94;1647821;86;21140;-70
2022/02/27 05:53:52;;;;;;;17.10;8.10;;;;;;;-1.50;100.00;100029.59;1638608;86;21049;-71
2022/02/27 05:56:19;;;;;;;15.30;7.10;;;;;;;-1.47;100.00;100028.93;1650419;86;21503;-71
2022/02/27 05:58:46;;;;;;;13.80;6.77;;;;;;;-1.38;100.00;100029.68;1643782;86;21061;-70
2022/02/27 06:01:13;;;;;;;16.60;7.00;;;;;;;-1.26;100.00;100026.72;1654558;86;21033;-68
2022/02/27 06:03:42;;;;;;;14.93;7.27;;;;;;;-1.15;100.00;100026.07;1654266;86;21132;-70
2022/02/27 06:06:09;;;;;;;14.60;7.27;;;;;;;-1.03;100.00;100025.27;1651667;86;21599;-70
2022/02/27 06:08:37;;;;;;;13.63;6.63;;;;;;;-0.91;100.00;100020.98;1647212;86;21109;-69
2022/02/27 06:11:10;;;;;;;13.70;6.17;;;;;;;-0.80;100.00;100019.84;1653121;86;21045;-70
2022/02/27 06:13:37;;;;;;;14.27;6.90;;;;;;;-0.66;100.00;100014.09;1652914;86;21057;-70
2022/02/27 06:16:04;;;;;;;14.50;6.93;;;;;;;-0.53;100.00;100023.43;1649516;86;21132;-70
2022/02/27 06:18:31;;;;;;;14.60;6.90;;;;;;;-0.43;100.00;100020.06;1641109;86;21072;-70
2022/02/27 06:20:58;;;;;;;13.00;6.37;;;;;;;-0.28;100.00;100022.20;1648375;86;21042;-71
2022/02/27 06:23:26;;;;;;;12.73;5.83;;;;;;;-0.15;100.00;100022.71;1652246;86;21062;-71
2022/02/27 06:25:53;;;;;;;14.83;6.17;;;;;;;-0.04;100.00;100025.00;1654264;86;21065;-70
2022/02/27 06:28:20;;;;;;;12.17;5.70;;;;;;;0.12;100.00;100019.98;1642588;86;21065;-69
2022/02/27 06:30:47;;;;;;;13.33;5.80;;;;;;;0.26;100.00;100013.72;1643350;86;21085;-70
2022/02/27 06:33:14;;;;;;;13.07;6.57;;;;;;;0.40;100.00;100012.28;1650657;86;21044;-70
2022/02/27 06:35:41;;;;;;;14.40;6.13;;;;;;;0.56;100.00;100014.72;1639359;86;21065;-70
2022/02/27 06:38:08;;;;;;;14.57;5.93;;;;;;;0.70;100.00;100008.44;1643990;86;21080;-69
2022/02/27 06:40:36;;;;;;;11.03;5.67;;;;;;;0.87;100.00;100009.42;1636066;86;21090;-71
2022/02/27 06:43:06;;;;;;;13.30;6.17;;;;;;;1.03;100.00;100005.66;1642957;86;21031;-70
2022/02/27 06:45:34;;;;;;;11.17;5.60;;;;;;;1.16;100.00;100001.62;1652391;86;21086;-71
2022/02/27 06:48:01;;;;;;;14.80;5.97;;;;;;;1.34;100.00;99992.27;1652095;86;21561;-70
2022/02/27 06:50:28;;;;;;;14.83;5.90;;;;;;;1.48;100.00;99994.76;1656780;86;21089;-69
2022/02/27 06:52:55;;;;;;;13.43;5.33;;;;;;;1.63;100.00;99994.58;1650926;86;21088;-69
2022/02/27 06:55:22;;;;;;;13.47;5.73;;;;;;;1.73;100.00;99987.59;1639635;85;21026;-69
2022/02/27 06:57:50;;;;;;;12.33;5.73;;;;;;;1.85;100.00;99988.49;1654978;83;21091;-69
2022/02/27 07:00:18;;;;;;;11.43;5.37;;;;;;;2.01;100.00;99987.68;1650741;86;21057;-71
2022/02/27 07:02:45;;;;;;;15.13;5.20;;;;;;;2.17;100.00;99988.69;1656648;81;21077;-69
2022/02/27 07:05:12;;;;;;;11.87;5.43;;;;;;;2.30;100.00;99971.73;1663064;86;21026;-70
2022/02/27 07:07:39;;;;;;;10.80;5.53;;;;;;;2.43;100.00;99962.64;1644003;86;21062;-70
2022/02/27 07:10:07;;;;;;;14.13;6.60;;;;;;;2.56;100.00;99942.99;1652835;86;21517;-70
2022/02/27 07:12:36;;;;;;;11.27;5.27;;;;;;;2.72;100.00;99930.11;1659272;86;21097;-70
2022/02/27 07:15:06;;;;;;;10.63;5.27;;;;;;;2.86;100.00;99927.66;1655612;86;21057;-69
2022/02/27 07:17:33;;;;;;;13.53;5.47;;;;;;;2.96;100.00;99951.81;1629278;88;21193;-68
2022/02/27 07:20:01;;;;;;;12.00;5.30;;;;;;;3.09;100.00;100005.94;1627305;88;21571;-70
2022/02/27 07:22:29;;;;;;;12.37;5.03;;;;;;;3.23;100.00;100057.77;1620199;88;21579;-70
2022/02/27 07:24:58;;;;;;;9.37;5.30;;;;;;;3.30;100.00;100128.95;1602266;87;21134;-70
2022/02/27 07:27:25;;;;;;;12.20;5.47;;;;;;;3.38;100.00;100188.48;1628904;87;21115;-70
2022/02/27 07:29:53;;;;;;;10.47;4.50;;;;;;;3.50;100.00;100247.66;1624296;87;21561;-71
2022/02/27 07:32:21;;;;;;;11.27;5.17;;;;;;;3.60;100.00;100300.79;1618877;89;21082;-71
2022/02/27 07:34:48;;;;;;;10.60;5.00;;;;;;;3.72;100.00;100339.11;1602034;87;21109;-70
2022/02/27 07:37:22;;;;;;;9.43;5.10;;;;;;;3.88;100.00;100387.38;1629346;88;21098;-71
2022/02/27 07:39:56;;;;;;;11.20;5.00;;;;;;;4.09;100.00;100423.65;1626395;88;21099;-69
2022/02/27 07:42:22;;;;;;;10.73;5.27;;;;;;;4.24;100.00;100453.73;1595860;88;21030;-70
2022/02/27 07:44:52;;;;;;;12.97;5.37;;;;;;;4.38;100.00;100494.50;1623714;88;21043;-70
2022/02/27 07:47:20;;;;;;;8.27;5.00;;;;;;;4.55;100.00;100533.83;1630198;88;21630;-70
2022/02/27 07:49:47;;;;;;;8.27;4.73;;;;;;;4.74;100.00;100581.47;1603510;88;21123;-70
2022/02/27 07:52:16;;;;;;;9.63;5.30;;;;;;;4.88;100.00;100632.14;1629306;88;21598;-68
2022/02/27 07:54:43;;;;;;;11.97;5.20;;;;;;;5.01;100.00;100674.95;1602002;88;21046;-70
2022/02/27 07:57:11;;;;;;;13.23;5.27;;;;;;;5.10;100.00;100718.95;1609537;88;21062;-69
2022/02/27 07:59:39;;;;;;;13.87;5.40;;;;;;;5.15;100.00;100777.05;1623872;88;21168;-69
2022/02/27 08:02:06;;;;;;;11.50;5.00;;;;;;;5.29;100.00;100805.03;1608735;88;21070;-70
2022/02/27 08:04:33;;;;;;;9.93;4.83;;;;;;;5.46;100.00;100812.25;1626069;88;21063;-69
2022/02/27 08:07:03;;;;;;;11.90;5.40;;;;;;;5.68;100.00;100827.05;1623041;87;21154;-70
2022/02/27 08:09:29;;;;;;;13.13;5.37;;;;;;;5.82;100.00;100839.84;1626696;87;21054;-69
2022/02/27 08:11:57;;;;;;;9.03;5.10;;;;;;;5.95;100.00;100856.71;1625338;88;21098;-69
2022/02/27 08:14:24;;;;;;;16.47;5.53;;;;;;;6.07;100.00;100868.32;1629056;86;21550;-69
2022/02/27 08:16:52;;;;;;;10.33;4.53;;;;;;;6.17;100.00;100888.59;1649831;86;21049;-70
2022/02/27 08:19:19;;;;;;;10.70;4.67;;;;;;;6.29;100.00;100897.52;1649742;86;21195;-70
2022/02/27 08:21:46;;;;;;;7.57;4.20;;;;;;;6.46;100.00;100909.97;1653986;86;21116;-70
2022/02/27 08:24:15;;;;;;;9.77;4.83;;;;;;;6.60;100.00;100918.23;1650037;86;21040;-71
2022/02/27 08:26:42;;;;;;;9.60;4.83;;;;;;;6.74;100.00;100921.15;1648031;86;21026;-69
2022/02/27 08:29:09;;;;;;;12.47;5.07;;;;;;;6.78;100.00;100934.73;1644020;86;21550;-72
2022/02/27 08:31:42;;;;;;;10.97;5.07;;;;;;;6.83;100.00;100938.37;1654316;86;21085;-70
2022/02/27 08:34:06;;;;;;;13.03;4.83;;;;;;;6.88;100.00;100955.48;1629961;86;21066;-70
2022/02/27 08:36:35;;;;;;;10.37;4.47;;;;;;;6.90;100.00;100956.20;1645675;86;21089;-71
2022/02/27 08:39:03;;;;;;;10.13;4.80;;;;;;;6.89;100.00;100967.92;1647535;86;21052;-68
2022/02/27 08:41:30;;;;;;;15.87;7.80;;;;;;;6.84;100.00;100967.81;1652481;85;21078;-70
2022/02/27 08:43:57;;;;;;;12.37;5.00;;;;;;;6.98;100.00;100967.20;1663379;85;21042;-70
2022/02/27 08:46:24;;;;;;;8.23;3.90;;;;;;;7.10;100.00;100974.27;1657311;86;21018;-70
2022/02/27 08:48:51;;;;;;;11.23;4.83;;;;;;;7.19;100.00;100980.23;1649723;85;21025;-70
2022/02/27 08:51:18;;;;;;;11.47;3.93;;;;;;;7.17;100.00;100991.61;1642820;86;21558;-72
2022/02/27 08:53:53;;;;;;;8.47;4.30;;;;;;;6.99;100.00;100992.63;1635835;86;21108;-69
2022/02/27 08:56:20;;;;;;;10.27;4.23;;;;;;;6.78;100.00;101007.31;1645969;86;21105;-69
2022/02/27 08:58:47;;;;;;;6.93;4.30;;;;;;;6.85;100.00;100994.20;1657407;86;21057;-70
2022/02/27 09:01:15;;;;;;;8.10;4.40;;;;;;;7.11;100.00;100988.06;1653143;86;21578;-68
2022/02/27 09:03:42;;;;;;;8.53;4.63;;;;;;;7.36;100.00;100984.20;1657907;86;21571;-69
2022/02/27 09:06:11;;;;;;;6.33;3.80;;;;;;;7.58;100.00;100982.44;1641879;85;21097;-69
2022/02/27 09:08:41;;;;;;;8.43;3.27;;;;;;;7.71;100.00;100995.20;1641604;86;21105;-70
2022/02/27 09:11:07;;;;;;;7.23;3.40;;;;;;;7.86;100.00;101002.97;1663303;86;21101;-70
2022/02/27 09:13:34;;;;;;;9.87;4.50;;;;;;;7.85;100.00;101022.82;1657618;86;21094;-69
2022/02/27 09:16:03;;;;;;;10.63;5.10;;;;;;;7.72;100.00;101024.32;1653160;86;21054;-68
2022/02/27 09:18:35;;;;;;;11.33;5.60;;;;;;;7.53;100.00;101034.44;1656618;83;21057;-71
2022/02/27 09:21:01;;;;;;;11.73;4.00;;;;;;;7.53;100.00;101024.52;1651640;86;21534;-70
2022/02/27 09:23:30;;;;;;;9.50;3.90;;;;;;;7.60;100.00;101020.84;1656541;86;21169;-69
2022/02/27 09:25:58;;;;;;;11.27;4.30;;;;;;;7.55;100.00;101031.13;1660778;86;21077;-71
2022/02/27 09:28:25;;;;;;;15.60;4.10;;;;;;;7.67;100.00;101018.50;1662920;86;21077;-71
2022/02/27 09:30:52;;;;;;;6.43;3.90;;;;;;;7.79;100.00;101037.63;1657066;86;21076;-72
2022/02/27 09:33:19;;;;;;;10.33;3.57;;;;;;;7.52;100.00;101044.33;1649049;86;21088;-70
2022/02/27 09:35:46;;;;;;;6.20;3.50;;;;;;;7.19;100.00;101050.16;1620905;86;21513;-69
2022/02/27 09:38:13;;;;;;;6.47;3.37;;;;;;;7.06;100.00;101049.44;1645337;86;21069;-69
2022/02/27 09:40:40;;;;;;;9.50;3.60;;;;;;;6.96;100.00;101045.30;1652434;84;21066;-70
2022/02/27 09:43:07;;;;;;;10.57;3.70;;;;;;;7.01;100.00;101040.41;1652030;86;21109;-70
2022/02/27 09:45:34;;;;;;;10.67;3.73;;;;;;;7.27;100.00;101040.62;1642199;86;21089;-70
2022/02/27 09:48:01;;;;;;;5.43;3.60;;;;;;;7.44;100.00;101040.09;1634591;86;21061;-69
2022/02/27 09:50:29;;;;;;;11.70;3.23;;;;;;;7.56;100.00;101044.46;1656460;86;21561;-69
2022/02/27 09:52:56;;;;;;;6.70;3.07;;;;;;;7.69;100.00;101038.06;1639292;86;21139;-69
2022/02/27 09:55:23;;;;;;;9.07;3.70;;;;;;;7.69;100.00;101038.06;1652112;86;21032;-70
2022/02/27 09:57:50;;;;;;;4.97;3.40;;;;;;;7.63;100.00;101039.91;1650140;86;21519;-70
2022/02/27 10:00:19;;;;;;;6.80;3.20;;;;;;;7.50;100.00;101038.72;1655874;85;21566;-69
2022/02/27 10:03:13;;;;;;;4.13;3.10;;;;;;;7.17;100.00;101049.91;1654789;86;21064;-69
2022/02/27 10:05:43;;;;;;;7.53;3.50;;;;;;;6.81;100.00;101050.55;1646331;86;21089;-69
2022/02/27 10:08:11;;;;;;;8.07;3.20;;;;;;;6.52;100.00;101048.34;1643537;86;21092;-69
2022/02/27 10:10:42;;;;;;;9.57;3.07;;;;;;;6.29;100.00;101050.63;1648555;86;21121;-70
2022/02/27 10:13:10;;;;;;;14.73;3.77;;;;;;;6.06;100.00;101046.03;1644740;86;21494;-70
2022/02/27 10:15:37;;;;;;;9.13;3.70;;;;;;;5.97;100.00;101037.34;1652373;86;21136;-71
2022/02/27 10:18:17;;;;;;;7.90;3.60;;;;;;;5.86;100.00;101041.28;1642924;86;21041;-69
2022/02/27 10:20:44;;;;;;;10.97;3.80;;;;;;;5.74;100.00;101046.22;1660960;86;21094;-69
2022/02/27 10:23:12;;;;;;;7.03;3.50;;;;;;;5.63;100.00;101041.66;1639544;86;21057;-69
2022/02/27 10:25:40;;;;;;;6.07;3.50;;;;;;;5.57;100.00;101038.11;1655404;86;21072;-69
2022/02/27 10:28:07;;;;;;;8.80;3.67;;;;;;;5.49;100.00;101039.55;1646411;86;21049;-70
2022/02/27 10:30:38;;;;;;;6.43;3.60;;;;;;;5.40;100.00;101037.55;1646574;87;21553;-69
2022/02/27 10:33:08;;;;;;;10.77;3.60;;;;;;;5.29;100.00;101037.00;1663640;86;21126;-70
2022/02/27 10:35:50;;;;;;;9.33;3.83;;;;;;;5.24;100.00;101038.28;1589925;90;21048;-70
2022/02/27 10:38:44;;;;;;;9.20;3.80;;;;;;;5.27;100.00;101035.38;1603965;87;21551;-70
2022/02/27 10:41:21;;;;;;;7.43;3.70;;;;;;;5.34;100.00;101029.94;1594830;88;21194;-69
2022/02/27 10:43:46;;;;;;;10.23;4.10;;;;;;;5.35;100.00;101030.33;1587674;89;21067;-69
2022/02/27 10:46:15;;;;;;;5.03;3.20;;;;;;;5.36;100.00;101025.80;1606783;88;21090;-69
2022/02/27 10:48:42;;;;;;;6.40;3.30;;;;;;;5.31;100.00;101028.81;1606034;89;21065;-70
2022/02/27 10:51:11;;;;;;;6.40;3.30;;;;;;;5.24;100.00;101028.89;1605675;88;21628;-69
2022/02/27 10:53:40;;;;;;;16.90;4.60;;;;;;;5.14;100.00;101038.95;1606533;88;21078;-71
2022/02/27 10:56:10;;;;;;;8.63;3.97;;;;;;;5.06;100.00;101029.27;1585956;89;21057;-69
2022/02/27 10:58:42;;;;;;;11.80;3.37;;;;;;;5.04;100.00;101037.05;1606949;88;21046;-69
2022/02/27 11:01:22;;;;;;;7.37;3.20;;;;;;;5.02;100.00;101031.80;1606558;88;21172;-69
2022/02/27 11:03:53;;;;;;;6.10;3.27;;;;;;;5.00;100.00;101039.59;1583086;88;21086;-69
2022/02/27 11:06:20;;;;;;;6.90;3.47;;;;;;;4.95;100.00;101040.77;1525922;92;21090;-70
2022/02/27 11:08:48;;;;;;;7.40;3.57;;;;;;;4.87;100.00;101034.23;1509308;92;21109;-70
2022/02/27 11:11:17;;;;;;;9.50;3.70;;;;;;;4.79;100.00;101034.80;1545239;91;21854;-69
2022/02/27 11:13:47;;;;;;;8.53;3.67;;;;;;;4.68;100.00;101038.73;1551463;91;21069;-69
2022/02/27 11:16:14;;;;;;;6.23;3.43;;;;;;;4.55;100.00;101043.61;1556008;91;21117;-70
2022/02/27 11:18:43;;;;;;;9.43;3.80;;;;;;;4.49;100.00;101045.36;1552640;90;21727;-70
2022/02/27 11:21:10;;;;;;;11.20;4.10;;;;;;;4.49;100.00;101043.18;1524459;92;21117;-70